Franklin Grove, IL

4:17 AM CST on December 04, 2016 (GMT -0600)
Lost Lake Ogle County, Illinois | | Change Station
Active Advisory: Winter Weather Advisory

Elev 761 ft 41.91 °N, 89.35 °W | Updated 4 seconds ago

Clear
Clear
31.1 °F
Feels Like 31 °F
N
0.0
Wind Variable Wind from East
Gusts 3.0 mph

Today
High -- | Low -- °F
--% Chance of Precip.
Yesterday
High -- | Low -- °F
Precip. -- in
Pressure 30.19 in
Visibility 10.0 miles
Clouds Clear
Windchill 31 °F
Dew Point 28 °F
Humidity 88%
Rainfall 0.00 in
Snow Depth Not available.
7:08 AM 4:26 PM
Waxing Crescent, 21% visible
METAR KRPJ 040955Z AUTO 14005KT 10SM CLR 00/M02 A3019 RMK AO2 T10051021
Pressure 30.19 in
Visibility 10.0 miles
Clouds Clear
Windchill 31 °F
Dew Point 28 °F
Humidity 88%
Rainfall 0.00 in
Snow Depth Not available.
7:08 AM 4:26 PM
Waxing Crescent, 21% visible
METAR KRPJ 040955Z AUTO 14005KT 10SM CLR 00/M02 A3019 RMK AO2 T10051021

10-Day Weather Forecast

Almanac

Astronomy

Dec. 04, 2016 Rise Set
Actual Time
Civil Twilight
Nautical Twilight
Astronomical Twilight
Moon
Length of Visible Light
Length of Day
Tomorrow will be .
, % of the Moon is Illuminated

Today's Extremes

State Highs State Lows

Community

WunderPhotos

Upload Photos

1,955,591 photos uploaded!

WunderBlog® & News

Nearby

Air Quality

  Air Quality AQ Index Pollutant
Not available.

Snow Depth

Station Depth Elevation

Earthquake Activity

City Distance Mag. Time & Date
Minimum magnitude displayed is 2.5.

Coastal Water Temperatures

Place Temperature

Stations

Nearby Weather Stations

Station Location Temp. Windchill Dew Point Humidity Wind Precip. Elev Updated Type
                   

Watches & Warnings

Winter Weather Advisory
Issued: 3:52 AM CST Dec. 4, 2016 – National Weather Service

... Winter Weather Advisory remains in effect from 7 am this
morning to 6 PM CST this evening...

* timing... light snow will begin early this morning increasing in
intensity by midday... and then continue until sunset or
slightly after.

* Snow accumulations... 3 to 5 inches.

* Main impact... slippery conditions are expected on untreated
surfaces creating hazardous travel.

* Other impacts... visibility may fall to around one half mile at
times causing an additional travel hazard.

* Note... impacts may be mitigated by mild Road temperatures on
heavily traveled roads.

Precautionary/preparedness actions...

A Winter Weather Advisory for snow means that periods of snow
will cause primarily travel difficulties. Be prepared for snow
covered roads and limited visibilities... and use caution while
driving.



Rodriguez